createdAt,value
2022-08-16T00:01:24.789Z,98340.50
2022-08-16T00:03:54.773Z,98337.72
2022-08-16T00:06:23.204Z,98345.69
2022-08-16T00:08:52.602Z,98345.03
2022-08-16T00:11:21.231Z,98348.81
2022-08-16T00:13:54.311Z,98347.59
2022-08-16T00:17:05.646Z,98350.97
2022-08-16T00:19:15.502Z,98350.38
2022-08-16T00:21:44.733Z,98347.09
2022-08-16T00:24:13.599Z,98356.56
2022-08-16T00:26:59.890Z,98358.88
2022-08-16T00:29:29.875Z,98355.19
2022-08-16T00:32:05.668Z,98362.66
2022-08-16T00:34:43.601Z,98357.97
2022-08-16T00:37:24.531Z,98357.59
2022-08-16T00:39:57.747Z,98357.09
2022-08-16T00:42:30.082Z,98349.28
2022-08-16T00:45:08.020Z,98359.88
2022-08-16T00:47:42.476Z,98359.97
2022-08-16T00:50:11.905Z,98363.37
2022-08-16T00:52:46.023Z,98366.84
2022-08-16T00:55:24.781Z,98358.88
2022-08-16T00:58:12.866Z,98364.38
2022-08-16T01:00:42.651Z,98369.81
2022-08-16T01:03:12.914Z,98363.75
2022-08-16T01:05:42.431Z,98367.41
2022-08-16T01:08:35.099Z,98362.63
2022-08-16T01:11:02.605Z,98367.16
2022-08-16T01:13:31.911Z,98377.34
2022-08-16T01:16:04.560Z,98370.75
2022-08-16T01:18:44.293Z,98367.84
2022-08-16T01:21:47.191Z,98364.09
2022-08-16T01:24:51.951Z,98366.78
2022-08-16T01:27:28.630Z,98370.16
2022-08-16T01:30:01.402Z,98374.59
2022-08-16T01:32:34.316Z,98371.94
2022-08-16T01:35:06.834Z,98367.63
2022-08-16T01:37:42.200Z,98368.25
2022-08-16T01:40:12.317Z,98368.47
2022-08-16T01:42:42.443Z,98373.69
2022-08-16T01:45:10.520Z,98366.19
2022-08-16T01:47:49.349Z,98374.16
2022-08-16T01:51:07.872Z,98371.63
2022-08-16T01:53:11.048Z,98368.50
2022-08-16T01:55:41.680Z,98378.06
2022-08-16T01:58:10.657Z,98364.16
2022-08-16T02:00:40.805Z,98363.97
2022-08-16T02:03:12.617Z,98374.06
2022-08-16T02:05:42.113Z,98374.84
2022-08-16T02:08:32.756Z,98375.09
2022-08-16T02:11:05.341Z,98380.84
2022-08-16T02:13:33.552Z,98381.66
2022-08-16T02:16:01.940Z,98384.28
2022-08-16T02:18:29.671Z,98377.25
2022-08-16T02:21:00.199Z,98363.91
2022-08-16T02:23:29.623Z,98357.59
2022-08-16T02:25:59.527Z,98363.47
2022-08-16T02:28:28.072Z,98362.53
2022-08-16T02:31:00.201Z,98366.22
2022-08-16T02:33:43.239Z,98364.97
2022-08-16T02:36:47.715Z,98366.88
2022-08-16T02:39:03.800Z,98370.97
2022-08-16T02:41:37.422Z,98358.38
2022-08-16T02:44:13.908Z,98366.62
2022-08-16T02:46:49.821Z,98369.28
2022-08-16T02:49:21.959Z,98363.03
2022-08-16T02:52:00.239Z,98366.75
2022-08-16T02:54:29.281Z,98355.84
2022-08-16T02:56:57.128Z,98351.81
2022-08-16T02:59:25.431Z,98363.69
2022-08-16T03:02:09.015Z,98357.09
2022-08-16T03:04:51.916Z,98362.03
2022-08-16T03:07:27.596Z,98363.19
2022-08-16T03:10:00.440Z,98359.81
2022-08-16T03:12:30.399Z,98366.50
2022-08-16T03:15:07.280Z,98362.37
2022-08-16T03:17:36.854Z,98358.81
2022-08-16T03:20:22.109Z,98364.28
2022-08-16T03:23:01.790Z,98368.28
2022-08-16T03:25:40.854Z,98376.44
2022-08-16T03:28:13.214Z,98382.91
2022-08-16T03:30:41.469Z,98376.19
2022-08-16T03:33:10.193Z,98386.41
2022-08-16T03:35:40.287Z,98390.94
2022-08-16T03:38:32.627Z,98398.00
2022-08-16T03:41:00.349Z,98398.56
2022-08-16T03:43:52.029Z,98393.00
2022-08-16T03:46:44.933Z,98402.94
2022-08-16T03:49:13.137Z,98405.97
2022-08-16T03:51:42.979Z,98406.47
2022-08-16T03:54:12.906Z,98409.53
2022-08-16T03:56:56.834Z,98402.75
2022-08-16T03:59:29.522Z,98406.66
2022-08-16T04:02:00.898Z,98404.41
2022-08-16T04:04:32.663Z,98411.69
2022-08-16T04:07:04.301Z,98411.50
2022-08-16T04:09:37.987Z,98402.38
2022-08-16T04:12:10.797Z,98407.81
2022-08-16T04:14:55.741Z,98396.19
2022-08-16T04:17:24.268Z,98417.38
2022-08-16T04:19:58.408Z,98423.09
2022-08-16T04:22:27.937Z,98418.84
2022-08-16T04:24:59.439Z,98419.91
2022-08-16T04:27:29.006Z,98428.72
2022-08-16T04:30:02.719Z,98413.34
2022-08-16T04:32:32.493Z,98419.44
2022-08-16T04:35:06.308Z,98415.34
2022-08-16T04:37:42.019Z,98419.84
2022-08-16T04:40:20.523Z,98419.53
2022-08-16T04:42:50.783Z,98420.16
2022-08-16T04:45:35.700Z,98423.84
2022-08-16T04:48:05.530Z,98425.69
2022-08-16T04:50:34.302Z,98432.31
2022-08-16T04:53:03.291Z,98428.88
2022-08-16T04:55:38.118Z,98429.28
2022-08-16T04:58:45.275Z,98424.19
2022-08-16T05:00:56.720Z,98429.38
2022-08-16T05:03:26.174Z,98428.81
2022-08-16T05:05:55.788Z,98430.47
2022-08-16T05:08:35.482Z,98430.94
2022-08-16T05:11:08.266Z,98432.16
2022-08-16T05:13:42.584Z,98441.84
2022-08-16T05:16:22.994Z,98450.78
2022-08-16T05:18:53.493Z,98455.59
2022-08-16T05:21:27.064Z,98457.88
2022-08-16T05:24:06.087Z,98457.06
2022-08-16T05:26:40.978Z,98461.69
2022-08-16T05:29:14.605Z,98464.41
2022-08-16T05:31:53.013Z,98466.50
2022-08-16T05:34:22.726Z,98460.22
2022-08-16T05:36:53.242Z,98461.69
2022-08-16T05:39:22.534Z,98468.25
2022-08-16T05:41:54.273Z,98471.34
2022-08-16T05:44:25.052Z,98477.63
2022-08-16T05:46:56.193Z,98472.97
2022-08-16T05:49:38.596Z,98472.47
2022-08-16T05:52:11.424Z,98465.09
2022-08-16T05:54:47.198Z,98464.22
2022-08-16T05:57:18.622Z,98468.22
2022-08-16T05:59:50.543Z,98456.22
2022-08-16T06:02:33.288Z,98472.19
2022-08-16T06:05:02.487Z,98472.81
2022-08-16T06:07:32.167Z,98472.62
2022-08-16T06:10:02.452Z,98486.53
2022-08-16T06:12:31.547Z,98476.41
2022-08-16T06:15:07.709Z,98473.44
2022-08-16T06:17:42.363Z,98469.66
2022-08-16T06:20:24.186Z,98462.22
2022-08-16T06:23:03.699Z,98464.94
2022-08-16T06:25:42.181Z,98466.38
2022-08-16T06:28:17.139Z,98468.03
2022-08-16T06:31:01.278Z,98465.09
2022-08-16T06:33:41.135Z,98465.25
2022-08-16T06:36:13.920Z,98464.53
2022-08-16T06:38:55.400Z,98463.56
2022-08-16T06:41:27.510Z,98456.50
2022-08-16T06:43:56.774Z,98447.66
2022-08-16T06:46:31.315Z,98449.09
2022-08-16T06:49:06.471Z,98447.25
2022-08-16T06:51:46.638Z,98442.41
2022-08-16T06:54:18.439Z,98449.88
2022-08-16T06:56:46.253Z,98444.44
2022-08-16T06:59:14.313Z,98448.53
2022-08-16T07:01:54.486Z,98454.41
2022-08-16T07:04:32.544Z,98456.59
2022-08-16T07:07:02.993Z,98452.63
2022-08-16T07:09:31.546Z,98454.59
2022-08-16T07:12:03.277Z,98454.88
2022-08-16T07:14:35.139Z,98454.59
2022-08-16T07:17:08.460Z,98446.87
2022-08-16T07:20:30.227Z,98453.97
2022-08-16T07:22:52.934Z,98463.84
2022-08-16T07:25:25.872Z,98468.84
2022-08-16T07:27:56.748Z,98470.66
2022-08-16T07:30:39.127Z,98480.41
2022-08-16T07:33:17.200Z,98489.59
2022-08-16T07:36:06.572Z,98491.56
2022-08-16T07:38:36.111Z,98495.06
2022-08-16T07:41:09.967Z,98502.88
2022-08-16T07:43:40.511Z,98509.72
2022-08-16T07:46:39.713Z,98507.78
2022-08-16T07:49:02.113Z,98507.25
2022-08-16T07:51:35.534Z,98503.12
2022-08-16T07:54:09.618Z,98499.97
2022-08-16T07:56:40.772Z,98500.59
2022-08-16T07:59:08.762Z,98510.25
2022-08-16T08:01:38.412Z,98499.47
2022-08-16T08:04:13.434Z,98504.22
2022-08-16T08:06:42.690Z,98504.97
2022-08-16T08:09:11.622Z,98506.59
2022-08-16T08:11:39.800Z,98515.34
2022-08-16T08:14:08.722Z,98506.19
2022-08-16T08:16:57.005Z,98515.75
2022-08-16T08:19:29.423Z,98511.69
2022-08-16T08:22:01.269Z,98517.00
2022-08-16T08:24:33.122Z,98510.75
2022-08-16T08:27:03.978Z,98522.13
2022-08-16T08:29:37.554Z,98517.72
2022-08-16T08:32:57.919Z,98515.41
2022-08-16T08:35:03.034Z,98516.91
2022-08-16T08:37:53.825Z,98517.44
2022-08-16T08:40:26.592Z,98516.09
2022-08-16T08:42:57.776Z,98522.94
2022-08-16T08:45:48.918Z,98524.22
2022-08-16T08:48:33.952Z,98520.41
2022-08-16T08:51:05.678Z,98507.22
2022-08-16T08:53:39.951Z,98507.37
2022-08-16T08:56:23.175Z,98508.75
2022-08-16T08:58:59.981Z,98508.50
2022-08-16T09:01:36.872Z,98507.03
2022-08-16T09:04:17.463Z,98515.63
2022-08-16T09:06:50.343Z,98505.06
2022-08-16T09:09:24.045Z,98518.66
2022-08-16T09:12:06.414Z,98514.91
2022-08-16T09:14:49.398Z,98503.97
2022-08-16T09:17:38.270Z,98517.44
2022-08-16T09:20:16.953Z,98503.66
2022-08-16T09:22:52.332Z,98505.28
2022-08-16T09:25:26.048Z,98507.97
2022-08-16T09:27:56.750Z,98493.16
2022-08-16T09:30:33.670Z,98497.78
2022-08-16T09:33:06.720Z,98487.06
2022-08-16T09:35:39.125Z,98484.25
2022-08-16T09:38:31.532Z,98491.19
2022-08-16T09:41:03.391Z,98491.50
2022-08-16T09:43:58.786Z,98485.91
2022-08-16T09:46:44.640Z,98493.47
2022-08-16T09:49:19.642Z,98487.94
2022-08-16T09:51:55.567Z,98486.22
2022-08-16T09:54:32.727Z,98490.78
2022-08-16T09:57:07.934Z,98470.59
2022-08-16T09:59:43.852Z,98484.72
2022-08-16T10:02:25.932Z,98482.34
2022-08-16T10:04:59.031Z,98476.00
2022-08-16T10:07:45.050Z,98475.25
2022-08-16T10:10:48.002Z,98467.72
2022-08-16T10:13:46.907Z,98468.03
2022-08-16T10:16:22.074Z,98469.25
2022-08-16T10:19:01.838Z,98469.31
2022-08-16T10:21:48.332Z,98476.16
2022-08-16T10:24:56.218Z,98469.47
2022-08-16T10:27:45.666Z,98470.81
2022-08-16T10:30:46.009Z,98468.22
2022-08-16T10:34:00.020Z,98475.22
2022-08-16T10:36:59.472Z,98473.25
2022-08-16T10:39:56.321Z,98470.50
2022-08-16T10:46:39.684Z,98467.00
2022-08-16T10:49:40.303Z,98474.75
2022-08-16T10:52:27.362Z,98471.31
2022-08-16T10:55:40.354Z,98464.62
2022-08-16T10:58:16.989Z,98475.38
2022-08-16T11:00:46.703Z,98471.25
2022-08-16T11:03:46.052Z,98458.34
2022-08-16T11:06:33.182Z,98461.37
2022-08-16T11:12:13.904Z,98452.13
2022-08-16T11:17:34.062Z,98437.81
2022-08-16T11:22:52.616Z,98446.28
2022-08-16T11:29:11.910Z,98444.94
2022-08-16T11:31:07.640Z,98448.69
2022-08-16T11:33:52.695Z,98451.97
2022-08-16T11:36:27.279Z,98451.53
2022-08-16T11:39:00.517Z,98445.25
2022-08-16T11:41:50.652Z,98447.50
2022-08-16T11:44:43.702Z,98466.63
2022-08-16T11:47:11.182Z,98469.06
2022-08-16T11:49:47.870Z,98463.63
2022-08-16T11:52:27.816Z,98460.38
2022-08-16T11:55:00.353Z,98455.69
2022-08-16T11:57:33.767Z,98464.16
2022-08-16T12:00:34.172Z,98460.00
2022-08-16T12:03:12.268Z,98451.75
2022-08-16T12:06:03.199Z,98448.66
2022-08-16T12:08:49.662Z,98455.47
2022-08-16T12:11:22.613Z,98448.28
2022-08-16T12:13:56.471Z,98450.31
2022-08-16T12:16:24.828Z,98460.94
2022-08-16T12:19:00.943Z,98452.03
2022-08-16T12:22:05.367Z,98444.47
2022-08-16T12:25:17.477Z,98446.81
2022-08-16T12:27:56.558Z,98441.38
2022-08-16T12:30:50.132Z,98435.25
2022-08-16T12:33:25.272Z,98449.19
2022-08-16T12:35:54.191Z,98453.72
2022-08-16T12:38:40.811Z,98469.22
2022-08-16T12:41:13.931Z,98475.41
2022-08-16T12:43:57.217Z,98463.25
2022-08-16T12:46:31.292Z,98459.47
2022-08-16T12:49:03.490Z,98463.34
2022-08-16T12:51:59.965Z,98460.56
2022-08-16T12:54:28.426Z,98471.09
2022-08-16T12:57:02.850Z,98468.69
2022-08-16T12:59:49.341Z,98471.34
2022-08-16T13:02:33.806Z,98471.22
2022-08-16T13:05:09.002Z,98458.22
2022-08-16T13:07:45.175Z,98467.63
2022-08-16T13:10:37.048Z,98456.19
2022-08-16T13:13:09.301Z,98454.31
2022-08-16T13:15:51.726Z,98443.34
2022-08-16T13:18:33.780Z,98437.44
2022-08-16T13:21:07.982Z,98421.34
2022-08-16T13:23:43.398Z,98425.19
2022-08-16T13:26:12.983Z,98420.53
2022-08-16T13:28:47.903Z,98419.38
2022-08-16T13:31:16.925Z,98418.81
2022-08-16T13:33:45.426Z,98427.84
2022-08-16T13:36:32.329Z,98424.78
2022-08-16T13:39:04.448Z,98421.91
2022-08-16T13:41:33.080Z,98425.47
2022-08-16T13:44:04.250Z,98426.81
2022-08-16T13:46:37.950Z,98428.63
2022-08-16T13:49:07.062Z,98432.69
2022-08-16T13:51:34.983Z,98438.63
2022-08-16T13:54:07.596Z,98433.06
2022-08-16T13:56:39.781Z,98433.41
2022-08-16T13:59:19.198Z,98429.34
2022-08-16T14:01:54.968Z,98424.03
2022-08-16T14:04:29.972Z,98430.19
2022-08-16T14:07:00.593Z,98422.00
2022-08-16T14:09:30.496Z,98420.31
2022-08-16T14:12:01.201Z,98420.38
2022-08-16T14:14:37.654Z,98412.31
2022-08-16T14:17:05.680Z,98409.91
2022-08-16T14:19:44.760Z,98403.75
2022-08-16T14:22:30.553Z,98404.81
2022-08-16T14:25:00.699Z,98399.38
2022-08-16T14:27:30.921Z,98405.44
2022-08-16T14:29:59.595Z,98396.50
2022-08-16T14:32:34.141Z,98402.16
2022-08-16T14:35:07.376Z,98400.19
2022-08-16T14:37:37.235Z,98395.47
2022-08-16T14:40:10.781Z,98400.06
2022-08-16T14:42:41.659Z,98399.69
2022-08-16T14:45:15.741Z,98400.06
2022-08-16T14:47:45.449Z,98402.50
2022-08-16T14:50:16.310Z,98414.44
2022-08-16T14:53:13.257Z,98404.41
2022-08-16T14:55:36.984Z,98406.72
2022-08-16T14:58:18.839Z,98403.72
2022-08-16T15:00:50.455Z,98405.41
2022-08-16T15:03:21.984Z,98410.06
2022-08-16T15:05:53.755Z,98412.59
2022-08-16T15:08:21.982Z,98413.41
2022-08-16T15:11:07.768Z,98419.06
2022-08-16T15:13:36.112Z,98417.56
2022-08-16T15:16:05.720Z,98414.56
2022-08-16T15:18:33.920Z,98417.19
2022-08-16T15:21:04.991Z,98421.28
2022-08-16T15:23:34.275Z,98427.38
2022-08-16T15:26:04.105Z,98431.03
2022-08-16T15:28:36.903Z,98430.53
2022-08-16T15:31:08.507Z,98431.66
2022-08-16T15:33:44.439Z,98434.00
2022-08-16T15:36:19.249Z,98433.28
2022-08-16T15:39:02.834Z,98443.16
2022-08-16T15:41:38.873Z,98434.19
2022-08-16T15:44:13.422Z,98444.44
2022-08-16T15:46:55.185Z,98444.22
2022-08-16T15:49:37.122Z,98434.88
2022-08-16T15:52:11.423Z,98430.63
2022-08-16T15:54:52.328Z,98436.19
2022-08-16T15:57:25.886Z,98428.72
2022-08-16T15:59:55.841Z,98433.53
2022-08-16T16:02:39.069Z,98429.47
2022-08-16T16:05:10.213Z,98434.88
2022-08-16T16:07:40.896Z,98434.91
2022-08-16T16:10:29.453Z,98442.25
2022-08-16T16:13:00.704Z,98439.19
2022-08-16T16:15:31.991Z,98442.19
2022-08-16T16:17:59.909Z,98452.53
2022-08-16T16:20:43.799Z,98464.44
2022-08-16T16:23:11.815Z,98458.56
2022-08-16T16:25:43.912Z,98459.88
2022-08-16T16:29:05.856Z,98462.00
2022-08-16T16:31:10.161Z,98465.34
2022-08-16T16:33:43.370Z,98450.88
2022-08-16T16:36:15.531Z,98462.47
2022-08-16T16:38:47.909Z,98459.78
2022-08-16T16:41:22.881Z,98456.00
2022-08-16T16:43:53.540Z,98454.75
2022-08-16T16:46:39.044Z,98454.81
2022-08-16T16:49:14.165Z,98449.53
2022-08-16T16:51:44.835Z,98457.12
2022-08-16T16:54:27.507Z,98450.12
2022-08-16T16:56:58.435Z,98450.59
2022-08-16T16:59:28.229Z,98449.62
2022-08-16T17:02:28.238Z,98465.50
2022-08-16T17:04:47.510Z,98454.41
2022-08-16T17:07:16.670Z,98457.53
2022-08-16T17:09:46.966Z,98459.59
2022-08-16T17:15:05.476Z,98460.34
2022-08-16T17:17:38.961Z,98460.25
2022-08-16T17:20:25.315Z,98464.22
2022-08-16T17:22:55.902Z,98474.00
2022-08-16T17:25:25.441Z,98471.53
2022-08-16T17:27:53.954Z,98472.81
2022-08-16T17:30:44.905Z,98473.44
2022-08-16T17:33:13.510Z,98484.41
2022-08-16T17:35:45.871Z,98483.94
2022-08-16T17:38:38.547Z,98489.97
2022-08-16T17:39:26.138Z,98466.63
2022-08-16T17:41:12.360Z,98489.38
2022-08-16T17:43:44.289Z,98504.34
2022-08-16T17:46:50.852Z,98513.13
2022-08-16T17:49:06.459Z,98522.09
2022-08-16T17:51:34.567Z,98515.88
2022-08-16T17:54:03.701Z,98524.00
2022-08-16T17:56:31.851Z,98524.34
2022-08-16T17:59:00.101Z,98531.69
2022-08-16T18:01:28.248Z,98546.44
2022-08-16T18:04:09.165Z,98547.59
2022-08-16T18:06:38.824Z,98550.84
2022-08-16T18:09:07.922Z,98549.09
2022-08-16T18:11:43.140Z,98552.31
2022-08-16T18:14:15.852Z,98557.66
2022-08-16T18:16:46.490Z,98556.38
2022-08-16T18:19:15.092Z,98562.16
2022-08-16T18:22:01.973Z,98569.06
2022-08-16T18:24:30.356Z,98562.22
2022-08-16T18:27:25.177Z,98557.62
2022-08-16T18:29:49.919Z,98559.00
2022-08-16T18:32:22.165Z,98559.22
2022-08-16T18:34:54.991Z,98558.81
2022-08-16T18:37:24.149Z,98574.25
2022-08-16T18:39:52.803Z,98572.59
2022-08-16T18:42:21.861Z,98569.91
2022-08-16T18:44:50.577Z,98564.09
2022-08-16T18:47:19.181Z,98560.13
2022-08-16T18:49:49.451Z,98560.25
2022-08-16T18:52:25.032Z,98564.56
2022-08-16T18:55:02.336Z,98570.16
2022-08-16T18:57:42.537Z,98569.81
2022-08-16T19:00:15.031Z,98569.63
2022-08-16T19:02:57.387Z,98576.91
2022-08-16T19:05:30.137Z,98570.34
2022-08-16T19:08:02.581Z,98568.66
2022-08-16T19:10:33.582Z,98565.41
2022-08-16T19:13:07.544Z,98558.44
2022-08-16T19:15:37.684Z,98566.59
2022-08-16T19:18:06.183Z,98570.19
2022-08-16T19:20:34.664Z,98566.66
2022-08-16T19:23:05.389Z,98570.25
2022-08-16T19:25:46.663Z,98572.62
2022-08-16T19:28:59.123Z,98578.91
2022-08-16T19:31:29.165Z,98563.84
2022-08-16T19:33:58.598Z,98577.06
2022-08-16T19:36:36.964Z,98569.53
2022-08-16T19:39:11.992Z,98575.31
2022-08-16T19:41:44.286Z,98579.19
2022-08-16T19:44:13.993Z,98578.19
2022-08-16T19:46:45.223Z,98584.06
2022-08-16T19:49:16.014Z,98583.47
2022-08-16T19:51:46.788Z,98585.41
2022-08-16T19:54:16.253Z,98591.50
2022-08-16T19:56:44.875Z,98601.53
2022-08-16T19:59:39.145Z,98590.97
2022-08-16T20:02:03.799Z,98585.16
2022-08-16T20:04:33.360Z,98591.84
2022-08-16T20:07:02.391Z,98586.41
2022-08-16T20:09:30.933Z,98588.69
2022-08-16T20:12:06.207Z,98589.94
2022-08-16T20:14:34.962Z,98585.63
2022-08-16T20:17:03.862Z,98587.75
2022-08-16T20:19:38.766Z,98601.69
2022-08-16T20:22:51.778Z,98608.91
2022-08-16T20:25:28.184Z,98609.25
2022-08-16T20:27:58.292Z,98601.06
2022-08-16T20:30:27.173Z,98598.22
2022-08-16T20:32:56.129Z,98596.28
2022-08-16T20:35:27.763Z,98596.66
2022-08-16T20:37:56.664Z,98600.66
2022-08-16T20:40:35.029Z,98597.22
2022-08-16T20:43:10.662Z,98599.13
2022-08-16T20:45:40.198Z,98609.84
2022-08-16T20:48:08.702Z,98607.88
2022-08-16T20:50:37.183Z,98605.31
2022-08-16T20:53:06.643Z,98610.25
2022-08-16T20:55:36.280Z,98604.63
2022-08-16T20:58:04.165Z,98608.13
2022-08-16T21:00:33.723Z,98617.91
2022-08-16T21:03:06.883Z,98603.84
2022-08-16T21:05:35.815Z,98607.97
2022-08-16T21:08:09.696Z,98608.28
2022-08-16T21:10:52.782Z,98613.59
2022-08-16T21:13:21.152Z,98611.97
2022-08-16T21:15:49.241Z,98615.63
2022-08-16T21:18:17.616Z,98613.63
2022-08-16T21:20:45.315Z,98606.41
2022-08-16T21:23:13.134Z,98612.38
2022-08-16T21:25:58.044Z,98612.69
2022-08-16T21:28:40.137Z,98610.66
2022-08-16T21:31:11.542Z,98608.69
2022-08-16T21:33:39.721Z,98617.34
2022-08-16T21:36:07.813Z,98610.97
2022-08-16T21:38:36.072Z,98614.50
2022-08-16T21:41:05.254Z,98615.53
2022-08-16T21:43:34.012Z,98622.03
2022-08-16T21:46:03.496Z,98625.94
2022-08-16T21:48:34.712Z,98620.41
2022-08-16T21:51:09.217Z,98627.63
2022-08-16T21:53:37.667Z,98618.41
2022-08-16T21:56:06.662Z,98624.53
2022-08-16T21:58:36.122Z,98630.50
2022-08-16T22:01:04.082Z,98624.25
2022-08-16T22:03:33.139Z,98631.69
2022-08-16T22:06:12.707Z,98627.97
2022-08-16T22:08:50.056Z,98632.47
2022-08-16T22:11:20.345Z,98631.44
2022-08-16T22:13:57.394Z,98625.22
2022-08-16T22:16:30.534Z,98622.94
2022-08-16T22:18:59.945Z,98632.62
2022-08-16T22:21:27.824Z,98632.50
2022-08-16T22:23:58.480Z,98632.97
2022-08-16T22:26:30.251Z,98631.00
2022-08-16T22:29:39.501Z,98635.97
2022-08-16T22:32:10.393Z,98638.06
2022-08-16T22:34:38.126Z,98632.34
2022-08-16T22:37:05.862Z,98632.38
2022-08-16T22:39:33.952Z,98633.72
2022-08-16T22:42:08.356Z,98635.72
2022-08-16T22:44:37.518Z,98636.75
2022-08-16T22:47:05.353Z,98634.38
2022-08-16T22:49:33.459Z,98632.75
2022-08-16T22:52:09.072Z,98630.84
2022-08-16T22:54:48.533Z,98635.72
2022-08-16T22:57:17.152Z,98637.94
2022-08-16T22:59:45.323Z,98623.88
2022-08-16T23:02:13.357Z,98633.22
2022-08-16T23:04:42.743Z,98633.22
2022-08-16T23:07:10.613Z,98636.75
2022-08-16T23:09:38.624Z,98628.56
2022-08-16T23:12:07.682Z,98637.88
2022-08-16T23:14:35.503Z,98638.56
2022-08-16T23:17:03.464Z,98634.47
2022-08-16T23:19:31.653Z,98634.47
2022-08-16T23:21:59.604Z,98634.28
2022-08-16T23:24:27.737Z,98630.97
2022-08-16T23:26:55.833Z,98626.84
2022-08-16T23:29:26.328Z,98630.34
2022-08-16T23:31:59.054Z,98636.59
2022-08-16T23:34:28.497Z,98629.13
2022-08-16T23:36:56.656Z,98635.16
2022-08-16T23:39:24.949Z,98642.78
2022-08-16T23:41:53.462Z,98631.44
2022-08-16T23:44:56.089Z,98632.78
2022-08-16T23:47:09.754Z,98636.94
2022-08-16T23:49:56.290Z,98635.56
2022-08-16T23:52:40.576Z,98634.31
2022-08-16T23:55:16.321Z,98632.50
2022-08-16T23:57:46.415Z,98626.56
